Time,TemperatureF,DewpointF,PressureIn,WindDirection,WindDirectionDegrees,WindSpeedMPH,WindSpeedGustMPH,Humidity,HourlyPrecipIn,Conditions,Clouds,dailyrainin,SolarRadiationWatts/m^2,SoftwareType,DateUTC
2013-02-18 00:01:00,69.0,53.0,-100.00,ENE,77,28.0,44.0,57,0.00,,,0.00,1.000000,,2013-02-18 10:01:00,
2013-02-18 00:11:00,69.0,53.0,-100.00,ENE,77,28.0,44.0,57,0.00,,,0.00,1.000000,,2013-02-18 10:11:00,
2013-02-18 00:21:00,69.0,53.0,-100.00,ENE,77,28.0,44.0,57,0.00,,,0.00,1.000000,,2013-02-18 10:21:00,
2013-02-18 00:31:00,69.0,53.0,-100.00,ENE,77,28.0,44.0,57,0.00,,,0.00,1.000000,,2013-02-18 10:31:00,
2013-02-18 00:53:00,69.0,49.0,-100.00,ESE,105,17.0,39.0,49,0.00,,,0.00,1.000000,,2013-02-18 10:53:00,
2013-02-18 01:01:00,69.0,49.0,-100.00,ESE,105,17.0,39.0,49,0.00,,,0.00,1.000000,,2013-02-18 11:01:00,
2013-02-18 01:11:00,69.0,49.0,-100.00,ESE,105,17.0,39.0,49,0.00,,,0.00,1.000000,,2013-02-18 11:11:00,
2013-02-18 01:21:00,69.0,49.0,-100.00,ESE,105,17.0,39.0,49,0.00,,,0.00,1.000000,,2013-02-18 11:21:00,
2013-02-18 02:02:00,69.0,53.0,-100.00,ENE,68,18.0,41.0,57,0.00,,,0.00,1.000000,,2013-02-18 12:02:00,
2013-02-18 02:11:00,69.0,53.0,-100.00,ENE,68,18.0,41.0,57,0.00,,,0.00,1.000000,,2013-02-18 12:11:00,
2013-02-18 02:21:00,69.0,53.0,-100.00,ENE,68,18.0,41.0,57,0.00,,,0.00,1.000000,,2013-02-18 12:21:00,
2013-02-18 02:31:00,69.0,53.0,-100.00,ENE,68,18.0,41.0,57,0.00,,,0.00,1.000000,,2013-02-18 12:31:00,
2013-02-18 03:02:00,67.0,49.0,-100.00,East,93,6.0,29.0,52,0.00,,,0.00,1.000000,,2013-02-18 13:02:00,
2013-02-18 03:12:00,67.0,49.0,-100.00,East,93,6.0,29.0,52,0.00,,,0.00,1.000000,,2013-02-18 13:12:00,
2013-02-18 03:32:00,67.0,49.0,-100.00,East,93,6.0,29.0,52,0.00,,,0.00,1.000000,,2013-02-18 13:32:00,
2013-02-18 04:02:00,64.0,49.0,-100.00,East,97,10.0,12.0,59,0.00,,,0.00,1.000000,,2013-02-18 14:02:00,
2013-02-18 04:11:00,64.0,49.0,-100.00,East,97,10.0,12.0,59,0.00,,,0.00,1.000000,,2013-02-18 14:11:00,
2013-02-18 04:22:00,64.0,49.0,-100.00,East,97,10.0,12.0,59,0.00,,,0.00,1.000000,,2013-02-18 14:22:00,
2013-02-18 04:31:00,64.0,49.0,-100.00,East,97,10.0,12.0,59,0.00,,,0.00,1.000000,,2013-02-18 14:31:00,
2013-02-18 05:02:00,63.0,49.0,-100.00,ESE,114,7.0,12.0,60,0.00,,,0.00,1.000000,,2013-02-18 15:02:00,
2013-02-18 05:11:00,63.0,49.0,-100.00,ESE,114,7.0,12.0,60,0.00,,,0.00,1.000000,,2013-02-18 15:11:00,
2013-02-18 05:22:00,63.0,49.0,-100.00,ESE,114,7.0,12.0,60,0.00,,,0.00,1.000000,,2013-02-18 15:22:00,
2013-02-18 05:31:00,63.0,49.0,-100.00,ESE,114,7.0,12.0,60,0.00,,,0.00,1.000000,,2013-02-18 15:31:00,
2013-02-18 06:02:00,66.0,50.0,-100.00,ESE,112,15.0,40.0,56,0.00,,,0.00,1.000000,,2013-02-18 16:02:00,
2013-02-18 06:11:00,66.0,50.0,-100.00,ESE,112,15.0,40.0,56,0.00,,,0.00,1.000000,,2013-02-18 16:11:00,
2013-02-18 06:21:00,66.0,50.0,-100.00,ESE,112,15.0,40.0,56,0.00,,,0.00,1.000000,,2013-02-18 16:21:00,
2013-02-18 06:31:00,66.0,50.0,-100.00,ESE,112,15.0,40.0,56,0.00,,,0.00,1.000000,,2013-02-18 16:31:00,
2013-02-18 06:53:00,69.0,55.0,-100.00,WNW,303,10.0,18.0,61,0.00,,,0.00,1.000000,,2013-02-18 16:53:00,
2013-02-18 07:03:00,69.0,55.0,-100.00,WNW,303,10.0,18.0,61,0.00,,,0.00,1.000000,,2013-02-18 17:03:00,
2013-02-18 07:11:00,69.0,55.0,-100.00,WNW,303,10.0,18.0,61,0.00,,,0.00,1.000000,,2013-02-18 17:11:00,
2013-02-18 07:21:00,69.0,55.0,-100.00,WNW,303,10.0,18.0,61,0.00,,,0.00,1.000000,,2013-02-18 17:21:00,
2013-02-18 07:32:00,69.0,55.0,-100.00,WNW,303,10.0,18.0,61,0.00,,,0.00,1.000000,,2013-02-18 17:32:00,
2013-02-18 08:02:00,69.0,58.0,-100.00,SE,142,6.0,21.0,69,0.00,,,0.00,18.000000,,2013-02-18 18:02:00,
2013-02-18 08:11:00,69.0,58.0,-100.00,SE,142,6.0,21.0,69,0.00,,,0.00,18.000000,,2013-02-18 18:11:00,
2013-02-18 08:22:00,69.0,58.0,-100.00,SE,142,6.0,21.0,69,0.00,,,0.00,18.000000,,2013-02-18 18:22:00,
2013-02-18 08:32:00,69.0,58.0,-100.00,SE,142,6.0,21.0,69,0.00,,,0.00,18.000000,,2013-02-18 18:32:00,
2013-02-18 09:02:00,71.0,59.0,-100.00,NE,42,6.0,12.0,66,0.00,,,0.00,99.000000,,2013-02-18 19:02:00,
2013-02-18 09:12:00,71.0,59.0,-100.00,NE,42,6.0,12.0,66,0.00,,,0.00,99.000000,,2013-02-18 19:12:00,
2013-02-18 09:21:00,71.0,59.0,-100.00,NE,42,6.0,12.0,66,0.00,,,0.00,99.000000,,2013-02-18 19:21:00,
2013-02-18 09:32:00,71.0,59.0,-100.00,NE,42,6.0,12.0,66,0.00,,,0.00,99.000000,,2013-02-18 19:32:00,
2013-02-18 10:02:00,73.0,57.0,-100.00,East,94,8.0,22.0,58,0.00,,,0.00,204.000000,,2013-02-18 20:02:00,
2013-02-18 10:12:00,73.0,57.0,-100.00,East,94,8.0,22.0,58,0.00,,,0.00,204.000000,,2013-02-18 20:12:00,
2013-02-18 10:22:00,73.0,57.0,-100.00,East,94,8.0,22.0,58,0.00,,,0.00,204.000000,,2013-02-18 20:22:00,
2013-02-18 10:32:00,73.0,57.0,-100.00,East,94,8.0,22.0,58,0.00,,,0.00,204.000000,,2013-02-18 20:32:00,
2013-02-18 11:02:00,73.0,57.0,-100.00,ENE,72,33.0,44.0,57,0.00,,,0.00,325.000000,,2013-02-18 21:02:00,
2013-02-18 11:12:00,73.0,57.0,-100.00,ENE,72,33.0,44.0,57,0.00,,,0.00,325.000000,,2013-02-18 21:12:00,
2013-02-18 11:21:00,73.0,57.0,-100.00,ENE,72,33.0,44.0,57,0.00,,,0.00,325.000000,,2013-02-18 21:21:00,
2013-02-18 11:32:00,73.0,57.0,-100.00,ENE,72,33.0,44.0,57,0.00,,,0.00,325.000000,,2013-02-18 21:32:00,
2013-02-18 12:02:00,75.0,58.0,-100.00,East,84,28.0,48.0,55,0.00,,,0.00,679.000000,,2013-02-18 22:02:00,
2013-02-18 12:12:00,75.0,58.0,-100.00,East,84,28.0,48.0,55,0.00,,,0.00,679.000000,,2013-02-18 22:12:00,
2013-02-18 12:22:00,75.0,58.0,-100.00,East,84,28.0,48.0,55,0.00,,,0.00,679.000000,,2013-02-18 22:22:00,
2013-02-18 12:32:00,75.0,58.0,-100.00,East,84,28.0,48.0,55,0.00,,,0.00,679.000000,,2013-02-18 22:32:00,
2013-02-18 13:02:00,76.0,56.0,-100.00,ENE,71,29.0,59.0,50,0.00,,,0.00,886.000000,,2013-02-18 23:02:00,
2013-02-18 13:12:00,76.0,56.0,-100.00,ENE,71,29.0,59.0,50,0.00,,,0.00,886.000000,,2013-02-18 23:12:00,
2013-02-18 13:22:00,76.0,56.0,-100.00,ENE,71,29.0,59.0,50,0.00,,,0.00,886.000000,,2013-02-18 23:22:00,
2013-02-18 13:32:00,76.0,56.0,-100.00,ENE,71,29.0,59.0,50,0.00,,,0.00,886.000000,,2013-02-18 23:32:00,
2013-02-18 14:02:00,75.0,56.0,-100.00,ENE,65,33.0,56.0,51,0.00,,,0.00,874.000000,,2013-02-19 00:02:00,
2013-02-18 14:12:00,75.0,56.0,-100.00,ENE,65,33.0,56.0,51,0.00,,,0.00,874.000000,,2013-02-19 00:12:00,
2013-02-18 14:32:00,75.0,56.0,-100.00,ENE,65,33.0,56.0,51,0.00,,,0.00,874.000000,,2013-02-19 00:32:00,
2013-02-18 15:03:00,76.0,56.0,-100.00,ENE,64,27.0,51.0,50,0.00,,,0.00,797.000000,,2013-02-19 01:03:00,
2013-02-18 15:13:00,76.0,56.0,-100.00,ENE,64,27.0,51.0,50,0.00,,,0.00,797.000000,,2013-02-19 01:13:00,
2013-02-18 15:22:00,76.0,56.0,-100.00,ENE,64,27.0,51.0,50,0.00,,,0.00,797.000000,,2013-02-19 01:22:00,
2013-02-18 15:32:00,76.0,56.0,-100.00,ENE,64,27.0,51.0,50,0.00,,,0.00,797.000000,,2013-02-19 01:32:00,
2013-02-18 16:02:00,76.0,56.0,-100.00,ENE,63,25.0,46.0,50,0.00,,,0.00,519.000000,,2013-02-19 02:02:00,
2013-02-18 16:12:00,76.0,56.0,-100.00,ENE,63,25.0,46.0,50,0.00,,,0.00,519.000000,,2013-02-19 02:12:00,
2013-02-18 16:22:00,76.0,56.0,-100.00,ENE,63,25.0,46.0,50,0.00,,,0.00,519.000000,,2013-02-19 02:22:00,
2013-02-18 16:32:00,76.0,56.0,-100.00,ENE,63,25.0,46.0,50,0.00,,,0.00,519.000000,,2013-02-19 02:32:00,
2013-02-18 16:54:00,72.0,55.0,-100.00,ENE,65,29.0,51.0,55,0.00,,,0.00,424.000000,,2013-02-19 02:54:00,
2013-02-18 17:05:00,72.0,55.0,-100.00,ENE,65,29.0,51.0,55,0.00,,,0.00,424.000000,,2013-02-19 03:05:00,
2013-02-18 17:13:00,72.0,55.0,-100.00,ENE,65,29.0,51.0,55,0.00,,,0.00,424.000000,,2013-02-19 03:13:00,
2013-02-18 17:22:00,72.0,55.0,-100.00,ENE,65,29.0,51.0,55,0.00,,,0.00,424.000000,,2013-02-19 03:22:00,
2013-02-18 17:32:00,72.0,55.0,-100.00,ENE,65,29.0,51.0,55,0.00,,,0.00,424.000000,,2013-02-19 03:32:00,
2013-02-18 18:02:00,71.0,54.0,-100.00,ENE,65,27.0,46.0,56,0.00,,,0.00,222.000000,,2013-02-19 04:02:00,
2013-02-18 18:22:00,71.0,54.0,-100.00,ENE,65,27.0,46.0,56,0.00,,,0.00,222.000000,,2013-02-19 04:22:00,
2013-02-18 18:32:00,71.0,54.0,-100.00,ENE,65,27.0,46.0,56,0.00,,,0.00,222.000000,,2013-02-19 04:32:00,
2013-02-18 19:02:00,68.0,54.0,-100.00,ENE,67,27.0,46.0,62,0.00,,,0.00,45.000000,,2013-02-19 05:02:00,
2013-02-18 19:12:00,68.0,54.0,-100.00,ENE,67,27.0,46.0,62,0.00,,,0.00,45.000000,,2013-02-19 05:12:00,
2013-02-18 19:22:00,68.0,54.0,-100.00,ENE,67,27.0,46.0,62,0.00,,,0.00,45.000000,,2013-02-19 05:22:00,
2013-02-18 19:32:00,68.0,54.0,-100.00,ENE,67,27.0,46.0,62,0.00,,,0.00,45.000000,,2013-02-19 05:32:00,
2013-02-18 20:02:00,68.0,54.0,-100.00,East,79,30.0,43.0,62,0.00,,,0.00,1.000000,,2013-02-19 06:02:00,
2013-02-18 20:11:00,68.0,54.0,-100.00,East,79,30.0,43.0,62,0.00,,,0.00,1.000000,,2013-02-19 06:11:00,
2013-02-18 20:21:00,68.0,54.0,-100.00,East,79,30.0,43.0,62,0.00,,,0.00,1.000000,,2013-02-19 06:21:00,
2013-02-18 20:32:00,68.0,54.0,-100.00,East,79,30.0,43.0,62,0.00,,,0.00,1.000000,,2013-02-19 06:32:00,
2013-02-18 21:01:00,67.0,54.0,-100.00,ENE,76,26.0,41.0,62,0.00,,,0.00,1.000000,,2013-02-19 07:01:00,
2013-02-18 21:11:00,67.0,54.0,-100.00,ENE,76,26.0,41.0,62,0.00,,,0.00,1.000000,,2013-02-19 07:11:00,
2013-02-18 21:21:00,67.0,54.0,-100.00,ENE,76,26.0,41.0,62,0.00,,,0.00,1.000000,,2013-02-19 07:21:00,
2013-02-18 21:32:00,67.0,54.0,-100.00,ENE,76,26.0,41.0,62,0.00,,,0.00,1.000000,,2013-02-19 07:32:00,
2013-02-18 22:01:00,67.0,55.0,-100.00,ENE,70,25.0,39.0,65,0.00,,,0.00,1.000000,,2013-02-19 08:01:00,
2013-02-18 22:11:00,67.0,55.0,-100.00,ENE,70,25.0,39.0,65,0.00,,,0.00,1.000000,,2013-02-19 08:11:00,
2013-02-18 22:21:00,67.0,55.0,-100.00,ENE,70,25.0,39.0,65,0.00,,,0.00,1.000000,,2013-02-19 08:21:00,
2013-02-18 22:31:00,67.0,55.0,-100.00,ENE,70,25.0,39.0,65,0.00,,,0.00,1.000000,,2013-02-19 08:31:00,
2013-02-18 23:01:00,67.0,54.0,-100.00,East,84,22.0,39.0,62,0.00,,,0.00,1.000000,,2013-02-19 09:01:00,
2013-02-18 23:11:00,67.0,54.0,-100.00,East,84,22.0,39.0,62,0.00,,,0.00,1.000000,,2013-02-19 09:11:00,
2013-02-18 23:21:00,67.0,54.0,-100.00,East,84,22.0,39.0,62,0.00,,,0.00,1.000000,,2013-02-19 09:21:00,
2013-02-18 23:31:00,67.0,54.0,-100.00,East,84,22.0,39.0,62,0.00,,,0.00,1.000000,,2013-02-19 09:31:00,